createdAt,value
2023-07-25T00:00:09.081Z,68.65
2023-07-25T00:00:20.912Z,68.57
2023-07-25T00:00:32.674Z,68.65
2023-07-25T00:00:44.412Z,68.67
2023-07-25T00:00:56.139Z,68.43
2023-07-25T00:01:08.948Z,68.42
2023-07-25T00:01:21.735Z,68.63
2023-07-25T00:01:33.715Z,68.76
2023-07-25T00:01:45.890Z,68.94
2023-07-25T00:01:57.905Z,68.97
2023-07-25T00:02:09.719Z,69.02
2023-07-25T00:02:21.510Z,69.12
2023-07-25T00:02:33.235Z,69.12
2023-07-25T00:02:44.944Z,69.05
2023-07-25T00:02:56.677Z,69.10
2023-07-25T00:03:08.492Z,69.26
2023-07-25T00:03:20.178Z,69.29
2023-07-25T00:03:33.040Z,69.46
2023-07-25T00:03:44.781Z,69.52
2023-07-25T00:03:56.551Z,69.48
2023-07-25T00:04:09.285Z,69.63
2023-07-25T00:04:21.085Z,69.58
2023-07-25T00:04:32.788Z,69.62
2023-07-25T00:04:44.495Z,69.64
2023-07-25T00:04:57.570Z,69.46
2023-07-25T00:05:11.521Z,69.50
2023-07-25T00:05:23.210Z,69.56
2023-07-25T00:05:36.130Z,69.34
2023-07-25T00:05:47.851Z,69.51
2023-07-25T00:06:01.681Z,69.21
2023-07-25T00:06:13.362Z,69.53
2023-07-25T00:06:25.076Z,69.49
2023-07-25T00:06:36.829Z,69.64
2023-07-25T00:06:48.519Z,69.53
2023-07-25T00:07:01.163Z,69.90
2023-07-25T00:07:12.928Z,69.70
2023-07-25T00:07:24.904Z,69.57
2023-07-25T00:07:36.574Z,69.71
2023-07-25T00:07:48.756Z,69.13
2023-07-25T00:08:00.433Z,69.71
2023-07-25T00:08:12.188Z,69.50
2023-07-25T00:08:23.957Z,69.47
2023-07-25T00:08:35.822Z,69.40
2023-07-25T00:08:48.853Z,69.43
2023-07-25T00:09:00.704Z,69.63
2023-07-25T00:09:12.374Z,69.57
2023-07-25T00:09:24.072Z,69.98
2023-07-25T00:09:35.760Z,70.12
2023-07-25T00:09:47.451Z,70.08
2023-07-25T00:09:59.447Z,70.00
2023-07-25T00:10:11.168Z,70.15
2023-07-25T00:10:22.952Z,70.29
2023-07-25T00:10:34.976Z,70.37
2023-07-25T00:10:46.644Z,70.36
2023-07-25T00:10:59.388Z,70.06
2023-07-25T00:11:13.904Z,70.14
2023-07-25T00:11:25.619Z,70.04
2023-07-25T00:11:37.336Z,70.00
2023-07-25T00:11:49.048Z,70.18
2023-07-25T00:12:00.712Z,70.19
2023-07-25T00:12:12.407Z,70.10
2023-07-25T00:12:24.253Z,70.31
2023-07-25T00:12:36.021Z,70.27
2023-07-25T00:12:47.708Z,70.17
2023-07-25T00:13:00.375Z,70.27
2023-07-25T00:13:12.083Z,70.19
2023-07-25T00:13:23.793Z,70.50
2023-07-25T00:13:35.515Z,70.40
2023-07-25T00:13:47.245Z,70.46
2023-07-25T00:13:58.953Z,70.53
2023-07-25T00:14:10.651Z,70.28
2023-07-25T00:14:22.441Z,70.64
2023-07-25T00:14:35.938Z,70.56
2023-07-25T00:14:47.719Z,70.61
2023-07-25T00:14:59.395Z,70.74
2023-07-25T00:15:11.773Z,70.61
2023-07-25T00:15:23.486Z,70.83
2023-07-25T00:15:35.231Z,70.86
2023-07-25T00:15:46.916Z,70.94
2023-07-25T00:15:58.797Z,70.95
2023-07-25T00:16:10.514Z,70.79
2023-07-25T00:16:23.254Z,70.70
2023-07-25T00:16:35.064Z,70.65
2023-07-25T00:16:47.091Z,70.82
2023-07-25T00:16:58.913Z,70.88
2023-07-25T00:17:10.669Z,70.65
2023-07-25T00:17:22.478Z,70.83
2023-07-25T00:17:34.272Z,70.63
2023-07-25T00:17:46.054Z,70.74
2023-07-25T00:17:58.087Z,71.00
2023-07-25T00:18:09.877Z,70.64
2023-07-25T00:18:22.565Z,70.86
2023-07-25T00:18:35.376Z,70.60
2023-07-25T00:18:47.093Z,70.72
2023-07-25T00:18:58.787Z,70.68
2023-07-25T00:19:10.465Z,70.75
2023-07-25T00:19:22.188Z,70.79
2023-07-25T00:19:33.914Z,70.59
2023-07-25T00:19:46.618Z,70.73
2023-07-25T00:19:59.703Z,70.56
2023-07-25T00:20:12.035Z,70.75
2023-07-25T00:20:23.776Z,70.91
2023-07-25T00:20:35.517Z,70.73
2023-07-25T00:20:47.255Z,70.73
2023-07-25T00:20:59.047Z,70.84
2023-07-25T00:21:10.850Z,70.89
2023-07-25T00:21:23.602Z,71.01
2023-07-25T00:21:35.572Z,71.10
2023-07-25T00:21:47.665Z,71.07
2023-07-25T00:21:59.450Z,71.00
2023-07-25T00:22:11.869Z,71.08
2023-07-25T00:22:23.907Z,71.00
2023-07-25T00:22:35.645Z,71.22
2023-07-25T00:22:47.412Z,71.19
2023-07-25T00:22:59.116Z,71.14
2023-07-25T00:23:11.804Z,71.26
2023-07-25T00:23:23.514Z,71.16
2023-07-25T00:23:35.224Z,71.38
2023-07-25T00:23:46.920Z,71.28
2023-07-25T00:23:58.640Z,71.31
2023-07-25T00:24:10.328Z,71.41
2023-07-25T00:24:22.055Z,71.32
2023-07-25T00:24:34.811Z,71.31
2023-07-25T00:24:46.730Z,71.46
2023-07-25T00:24:58.498Z,71.45
2023-07-25T00:25:11.180Z,71.45
2023-07-25T00:25:23.327Z,71.43
2023-07-25T00:25:35.192Z,71.50
2023-07-25T00:25:46.948Z,71.38
2023-07-25T00:25:58.692Z,71.51
2023-07-25T00:26:10.446Z,71.72
2023-07-25T00:26:22.155Z,71.82
2023-07-25T00:26:34.880Z,71.56
2023-07-25T00:26:46.586Z,71.69
2023-07-25T00:26:58.273Z,71.66
2023-07-25T00:27:09.981Z,71.69
2023-07-25T00:27:21.751Z,71.82
2023-07-25T00:27:33.483Z,71.90
2023-07-25T00:27:45.202Z,71.48
2023-07-25T00:27:56.914Z,71.84
2023-07-25T00:28:08.606Z,71.79
2023-07-25T00:28:23.483Z,71.78
2023-07-25T00:28:35.235Z,72.11
2023-07-25T00:28:47.041Z,71.98
2023-07-25T00:28:58.740Z,72.03
2023-07-25T00:29:10.572Z,72.01
2023-07-25T00:29:22.437Z,72.19
2023-07-25T00:29:34.130Z,72.40
2023-07-25T00:29:45.865Z,72.30
2023-07-25T00:29:58.709Z,72.74
2023-07-25T00:30:11.076Z,72.84
2023-07-25T00:30:22.946Z,72.91
2023-07-25T00:30:34.717Z,72.78
2023-07-25T00:30:46.410Z,72.91
2023-07-25T00:30:58.081Z,72.84
2023-07-25T00:31:09.836Z,72.93
2023-07-25T00:31:22.571Z,73.10
2023-07-25T00:31:34.599Z,73.04
2023-07-25T00:31:46.631Z,73.09
2023-07-25T00:31:58.354Z,73.08
2023-07-25T00:32:10.301Z,73.02
2023-07-25T00:32:22.080Z,73.12
2023-07-25T00:32:34.980Z,73.10
2023-07-25T00:32:46.728Z,73.05
2023-07-25T00:32:58.493Z,73.05
2023-07-25T00:33:10.324Z,73.00
2023-07-25T00:33:22.095Z,73.09
2023-07-25T00:33:34.823Z,73.26
2023-07-25T00:33:46.518Z,73.20
2023-07-25T00:33:58.232Z,73.10
2023-07-25T00:34:09.929Z,73.09
2023-07-25T00:34:21.641Z,73.04
2023-07-25T00:34:33.352Z,72.96
2023-07-25T00:34:45.055Z,73.04
2023-07-25T00:34:56.738Z,73.25
2023-07-25T00:35:09.929Z,73.19
2023-07-25T00:35:21.609Z,73.16
2023-07-25T00:35:34.283Z,73.24
2023-07-25T00:35:52.205Z,73.28
2023-07-25T00:36:04.439Z,73.17
2023-07-25T00:36:16.147Z,73.38
2023-07-25T00:36:27.929Z,73.61
2023-07-25T00:36:39.681Z,73.58
2023-07-25T00:36:51.550Z,73.55
2023-07-25T00:37:03.409Z,73.48
2023-07-25T00:37:15.119Z,73.65
2023-07-25T00:37:28.833Z,73.57
2023-07-25T00:37:41.502Z,73.48
2023-07-25T00:37:53.239Z,73.55
2023-07-25T00:38:05.329Z,73.46
2023-07-25T00:38:17.010Z,73.31
2023-07-25T00:38:28.683Z,73.59
2023-07-25T00:38:40.421Z,73.60
2023-07-25T00:38:52.146Z,73.43
2023-07-25T00:39:03.996Z,73.50
2023-07-25T00:39:15.692Z,73.18
2023-07-25T00:39:28.380Z,73.48
2023-07-25T00:39:40.089Z,73.33
2023-07-25T00:39:53.652Z,73.39
2023-07-25T00:40:06.587Z,73.36
2023-07-25T00:40:18.316Z,73.43
2023-07-25T00:40:30.035Z,73.32
2023-07-25T00:40:41.740Z,73.38
2023-07-25T00:40:53.444Z,73.25
2023-07-25T00:41:06.203Z,73.19
2023-07-25T00:41:17.981Z,73.27
2023-07-25T00:41:29.899Z,73.17
2023-07-25T00:41:41.833Z,73.27
2023-07-25T00:41:53.571Z,73.33
2023-07-25T00:42:06.157Z,73.09
2023-07-25T00:42:18.045Z,73.03
2023-07-25T00:42:29.787Z,73.23
2023-07-25T00:42:41.708Z,73.18
2023-07-25T00:42:56.528Z,73.25
2023-07-25T00:43:09.199Z,73.14
2023-07-25T00:43:20.908Z,73.23
2023-07-25T00:43:32.618Z,73.09
2023-07-25T00:43:44.410Z,73.35
2023-07-25T00:43:56.110Z,73.16
2023-07-25T00:44:07.932Z,73.23
2023-07-25T00:44:19.602Z,73.37
2023-07-25T00:44:31.307Z,73.20
2023-07-25T00:44:44.034Z,73.33
2023-07-25T00:44:55.715Z,73.29
2023-07-25T00:45:09.104Z,73.24
2023-07-25T00:45:20.817Z,73.15
2023-07-25T00:45:32.648Z,73.27
2023-07-25T00:45:44.658Z,73.05
2023-07-25T00:45:56.476Z,73.08
2023-07-25T00:46:08.507Z,73.16
2023-07-25T00:46:20.398Z,73.11
2023-07-25T00:46:33.224Z,73.34
2023-07-25T00:46:45.301Z,73.22
2023-07-25T00:46:56.999Z,73.19
2023-07-25T00:47:08.734Z,73.13
2023-07-25T00:47:22.717Z,73.26
2023-07-25T00:47:34.705Z,73.20
2023-07-25T00:47:46.542Z,73.20
2023-07-25T00:47:58.325Z,73.29
2023-07-25T00:48:10.064Z,73.27
2023-07-25T00:48:22.752Z,73.25
2023-07-25T00:48:34.580Z,73.32
2023-07-25T00:48:46.569Z,73.25
2023-07-25T00:48:58.298Z,73.14
2023-07-25T00:49:10.076Z,73.07
2023-07-25T00:49:21.952Z,73.08
2023-07-25T00:49:33.636Z,73.11
2023-07-25T00:49:45.670Z,73.22
2023-07-25T00:49:57.439Z,73.17
2023-07-25T00:50:11.713Z,73.20
2023-07-25T00:50:23.520Z,73.21
2023-07-25T00:50:35.438Z,73.20
2023-07-25T00:50:47.251Z,73.19
2023-07-25T00:50:58.940Z,73.11
2023-07-25T00:51:10.669Z,73.27
2023-07-25T00:51:22.744Z,73.31
2023-07-25T00:51:35.189Z,73.21
2023-07-25T00:51:46.942Z,73.07
2023-07-25T00:51:58.624Z,73.23
2023-07-25T00:52:10.485Z,73.33
2023-07-25T00:52:23.203Z,73.16
2023-07-25T00:52:35.024Z,73.05
2023-07-25T00:52:46.729Z,73.08
2023-07-25T00:52:59.784Z,73.03
2023-07-25T00:53:11.915Z,73.05
2023-07-25T00:53:24.657Z,72.97
2023-07-25T00:53:36.809Z,73.10
2023-07-25T00:53:48.563Z,72.87
2023-07-25T00:54:01.948Z,73.00
2023-07-25T00:54:13.798Z,73.00
2023-07-25T00:54:25.509Z,73.04
2023-07-25T00:54:38.944Z,73.06
2023-07-25T00:54:51.700Z,73.10
2023-07-25T00:55:04.199Z,72.86
2023-07-25T00:55:15.970Z,72.97
2023-07-25T00:55:28.541Z,72.82
2023-07-25T00:55:40.292Z,72.83
2023-07-25T00:55:52.957Z,72.72
2023-07-25T00:56:05.387Z,72.93
2023-07-25T00:56:17.302Z,72.95
2023-07-25T00:56:29.057Z,72.68
2023-07-25T00:56:40.755Z,72.74
2023-07-25T00:56:52.471Z,72.63
2023-07-25T00:57:04.759Z,72.78
2023-07-25T00:57:17.526Z,72.71
2023-07-25T00:57:29.365Z,72.82
2023-07-25T00:57:42.066Z,72.79
2023-07-25T00:57:53.834Z,72.79
2023-07-25T00:58:05.649Z,72.42
2023-07-25T00:58:17.569Z,72.63
2023-07-25T00:58:29.827Z,72.81
2023-07-25T00:58:41.538Z,72.88
2023-07-25T00:58:53.498Z,72.63
2023-07-25T00:59:05.532Z,72.85
2023-07-25T00:59:17.425Z,72.79
2023-07-25T00:59:29.095Z,72.70
2023-07-25T00:59:41.884Z,72.74
2023-07-25T00:59:53.631Z,72.74
2023-07-25T01:00:06.912Z,72.91
2023-07-25T01:00:18.711Z,72.77
2023-07-25T01:00:30.418Z,73.02
2023-07-25T01:00:43.136Z,73.06
2023-07-25T01:01:02.552Z,72.97
2023-07-25T01:01:14.261Z,73.02
2023-07-25T01:01:26.820Z,73.00
2023-07-25T01:01:38.763Z,73.04
2023-07-25T01:01:50.545Z,72.74
2023-07-25T01:02:02.312Z,72.85
2023-07-25T01:02:14.772Z,72.98
2023-07-25T01:02:26.725Z,72.80
2023-07-25T01:02:38.582Z,72.90
2023-07-25T01:02:51.511Z,72.94
2023-07-25T01:03:03.529Z,72.92
2023-07-25T01:03:15.629Z,72.93
2023-07-25T01:03:27.464Z,72.87
2023-07-25T01:03:39.867Z,73.11
2023-07-25T01:03:54.562Z,72.98
2023-07-25T01:04:06.561Z,73.01
2023-07-25T01:04:18.583Z,72.96
2023-07-25T01:04:30.290Z,72.88
2023-07-25T01:04:42.747Z,73.17
2023-07-25T01:04:55.605Z,73.23
2023-07-25T01:05:07.620Z,73.34
2023-07-25T01:05:20.720Z,73.16
2023-07-25T01:05:34.199Z,73.36
2023-07-25T01:05:48.360Z,73.42
2023-07-25T01:06:01.416Z,73.34
2023-07-25T01:06:14.286Z,73.43
2023-07-25T01:06:26.011Z,73.29
2023-07-25T01:06:38.339Z,73.24
2023-07-25T01:06:50.602Z,73.23
2023-07-25T01:07:03.852Z,73.26
2023-07-25T01:07:16.004Z,73.29
2023-07-25T01:07:27.979Z,73.29
2023-07-25T01:07:41.224Z,73.28
2023-07-25T01:07:52.954Z,73.38
2023-07-25T01:08:05.179Z,73.28
2023-07-25T01:08:16.936Z,73.10
2023-07-25T01:08:28.647Z,73.05
2023-07-25T01:08:48.361Z,72.80
2023-07-25T01:09:01.030Z,73.04
2023-07-25T01:09:12.722Z,73.08
2023-07-25T01:09:41.218Z,73.01
2023-07-25T01:09:52.953Z,73.02
2023-07-25T01:10:05.110Z,73.04
2023-07-25T01:10:16.840Z,72.97
2023-07-25T01:10:28.521Z,72.97
2023-07-25T01:10:41.224Z,73.26
2023-07-25T01:10:52.958Z,73.25
2023-07-25T01:11:04.698Z,73.32
2023-07-25T01:11:16.543Z,73.07
2023-07-25T01:11:29.245Z,73.36
2023-07-25T01:11:41.054Z,73.28
2023-07-25T01:11:52.784Z,73.37
2023-07-25T01:12:06.201Z,73.24
2023-07-25T01:12:17.872Z,73.26
2023-07-25T01:12:29.854Z,73.29
2023-07-25T01:12:42.566Z,73.32
2023-07-25T01:12:54.251Z,73.32
2023-07-25T01:13:06.075Z,73.33
2023-07-25T01:13:17.803Z,73.24
2023-07-25T01:13:29.527Z,73.04
2023-07-25T01:13:41.292Z,73.16
2023-07-25T01:13:53.056Z,73.19
2023-07-25T01:14:04.822Z,73.03
2023-07-25T01:14:16.529Z,73.10
2023-07-25T01:14:28.245Z,73.03
2023-07-25T01:14:40.605Z,73.03
2023-07-25T01:14:53.380Z,73.08
2023-07-25T01:15:05.815Z,73.14
2023-07-25T01:15:17.817Z,73.07
2023-07-25T01:15:29.721Z,73.18
2023-07-25T01:15:41.961Z,72.96
2023-07-25T01:15:54.426Z,73.10
2023-07-25T01:16:06.596Z,73.15
2023-07-25T01:16:22.183Z,73.36
2023-07-25T01:16:34.822Z,73.53
2023-07-25T01:16:46.552Z,73.44
2023-07-25T01:16:59.048Z,73.80
2023-07-25T01:17:12.718Z,73.87
2023-07-25T01:17:26.160Z,73.82
2023-07-25T01:17:38.028Z,73.82
2023-07-25T01:17:51.378Z,73.95
2023-07-25T01:18:03.257Z,74.10
2023-07-25T01:18:15.097Z,74.34
2023-07-25T01:18:26.968Z,74.10
2023-07-25T01:18:38.809Z,74.31
2023-07-25T01:18:51.738Z,74.09
2023-07-25T01:19:03.659Z,74.04
2023-07-25T01:19:18.226Z,74.02
2023-07-25T01:19:30.955Z,73.87
2023-07-25T01:19:44.958Z,73.74
2023-07-25T01:19:58.024Z,73.60
2023-07-25T01:20:12.058Z,73.71
2023-07-25T01:20:25.535Z,73.71
2023-07-25T01:20:37.951Z,73.53
2023-07-25T01:20:49.796Z,73.63
2023-07-25T01:21:01.513Z,73.68
2023-07-25T01:21:13.604Z,73.65
2023-07-25T01:21:25.515Z,73.64
2023-07-25T01:21:37.453Z,73.66
2023-07-25T01:21:49.192Z,73.50
2023-07-25T01:22:01.142Z,73.56
2023-07-25T01:22:13.916Z,73.47
2023-07-25T01:22:26.953Z,73.46
2023-07-25T01:22:39.425Z,73.38
2023-07-25T01:22:52.185Z,73.37
2023-07-25T01:23:06.171Z,73.61
2023-07-25T01:23:18.725Z,73.48
2023-07-25T01:23:30.825Z,73.74
2023-07-25T01:23:42.924Z,73.45
2023-07-25T01:24:00.598Z,73.59
2023-07-25T01:24:13.451Z,73.60
2023-07-25T01:24:25.555Z,73.40
2023-07-25T01:24:37.871Z,73.42
2023-07-25T01:24:49.735Z,73.39
2023-07-25T01:25:01.468Z,73.38
2023-07-25T01:25:13.277Z,73.37
2023-07-25T01:25:24.976Z,73.19
2023-07-25T01:25:36.765Z,73.10
2023-07-25T01:25:48.522Z,73.31
2023-07-25T01:26:00.966Z,73.11
2023-07-25T01:26:13.658Z,73.23
2023-07-25T01:26:25.401Z,73.33
2023-07-25T01:26:37.117Z,73.31
2023-07-25T01:26:48.892Z,73.36
2023-07-25T01:27:00.617Z,73.09
2023-07-25T01:27:12.404Z,73.06
2023-07-25T01:27:24.156Z,73.21
2023-07-25T01:27:35.884Z,73.28
2023-07-25T01:27:47.799Z,73.36
2023-07-25T01:27:59.541Z,73.27
2023-07-25T01:28:11.263Z,73.22
2023-07-25T01:28:24.293Z,73.15
2023-07-25T01:28:38.325Z,72.95
2023-07-25T01:28:50.057Z,72.92
2023-07-25T01:29:01.738Z,72.97
2023-07-25T01:29:13.404Z,72.93
2023-07-25T01:29:25.156Z,72.89
2023-07-25T01:29:36.902Z,72.85
2023-07-25T01:29:48.592Z,72.96
2023-07-25T01:30:01.293Z,72.84
2023-07-25T01:30:13.069Z,72.78
2023-07-25T01:30:24.826Z,72.81
2023-07-25T01:30:36.529Z,72.96
2023-07-25T01:30:48.421Z,73.01
2023-07-25T01:31:00.227Z,73.02
2023-07-25T01:31:11.940Z,73.18
2023-07-25T01:31:23.648Z,73.26
2023-07-25T01:31:35.362Z,73.48
2023-07-25T01:31:47.091Z,73.53
2023-07-25T01:31:59.751Z,73.72
2023-07-25T01:32:11.873Z,73.69
2023-07-25T01:32:23.691Z,73.55
2023-07-25T01:32:35.627Z,73.67
2023-07-25T01:32:47.367Z,73.75
2023-07-25T01:32:59.098Z,73.70
2023-07-25T01:33:10.926Z,73.72
2023-07-25T01:33:22.656Z,73.74
2023-07-25T01:33:34.396Z,73.57
2023-07-25T01:33:47.060Z,73.79
2023-07-25T01:33:58.813Z,73.75
2023-07-25T01:34:10.606Z,73.89
2023-07-25T01:34:22.415Z,73.88
2023-07-25T01:34:34.162Z,73.84
2023-07-25T01:34:45.900Z,73.77
2023-07-25T01:34:57.718Z,74.07
2023-07-25T01:35:09.413Z,74.28
2023-07-25T01:35:21.270Z,74.33
2023-07-25T01:35:32.970Z,74.22
2023-07-25T01:35:45.661Z,74.40
2023-07-25T01:35:57.420Z,74.42
2023-07-25T01:36:09.143Z,74.43
2023-07-25T01:36:20.910Z,74.12
2023-07-25T01:36:32.605Z,74.17
2023-07-25T01:36:44.345Z,74.00
2023-07-25T01:36:56.072Z,73.93
2023-07-25T01:37:08.656Z,73.96
2023-07-25T01:37:20.960Z,73.97
2023-07-25T01:37:33.675Z,74.16
2023-07-25T01:37:45.376Z,74.11
2023-07-25T01:37:57.081Z,73.90
2023-07-25T01:38:08.838Z,73.91
2023-07-25T01:38:20.558Z,73.86
2023-07-25T01:38:32.248Z,73.63
2023-07-25T01:38:43.947Z,73.92
2023-07-25T01:38:55.670Z,73.82
2023-07-25T01:39:08.742Z,74.05
2023-07-25T01:39:21.455Z,73.86
2023-07-25T01:39:33.127Z,73.87
2023-07-25T01:39:45.115Z,73.92
2023-07-25T01:39:56.899Z,73.92
2023-07-25T01:40:09.868Z,74.17
2023-07-25T01:40:21.649Z,74.02
2023-07-25T01:40:33.355Z,74.09
2023-07-25T01:40:45.030Z,74.25
2023-07-25T01:40:56.710Z,74.19
2023-07-25T01:41:08.416Z,74.10
2023-07-25T01:41:21.116Z,74.19
2023-07-25T01:41:33.139Z,74.19
2023-07-25T01:41:45.193Z,73.94
2023-07-25T01:41:56.918Z,73.99
2023-07-25T01:42:08.626Z,73.83
2023-07-25T01:42:20.828Z,73.74
2023-07-25T01:42:32.960Z,73.73
2023-07-25T01:42:44.672Z,73.70
2023-07-25T01:42:56.411Z,73.54
2023-07-25T01:43:09.273Z,73.52
2023-07-25T01:43:21.004Z,73.56
2023-07-25T01:43:32.767Z,73.71
2023-07-25T01:43:44.434Z,73.73
2023-07-25T01:43:56.190Z,73.59
2023-07-25T01:44:07.958Z,73.67
2023-07-25T01:44:19.662Z,73.53
2023-07-25T01:44:31.411Z,73.53
2023-07-25T01:44:43.128Z,73.66
2023-07-25T01:44:55.806Z,73.75
2023-07-25T01:45:08.772Z,73.59
2023-07-25T01:45:20.698Z,73.83
2023-07-25T01:45:32.475Z,73.65
2023-07-25T01:45:44.286Z,73.92
2023-07-25T01:45:56.121Z,73.65
2023-07-25T01:46:07.893Z,73.76
2023-07-25T01:46:19.721Z,73.69
2023-07-25T01:46:31.469Z,73.86
2023-07-25T01:46:43.166Z,73.81
2023-07-25T01:46:57.125Z,73.80
2023-07-25T01:47:08.866Z,73.60
2023-07-25T01:47:26.453Z,73.77
2023-07-25T01:47:38.310Z,73.79
2023-07-25T01:47:50.152Z,73.81
2023-07-25T01:48:01.881Z,73.77
2023-07-25T01:48:13.594Z,73.91
2023-07-25T01:48:25.375Z,73.86
2023-07-25T01:48:38.037Z,73.73
2023-07-25T01:48:50.066Z,74.08
2023-07-25T01:49:01.788Z,74.13
2023-07-25T01:49:13.962Z,74.24
2023-07-25T01:49:25.673Z,74.39
2023-07-25T01:49:37.398Z,74.36
2023-07-25T01:49:49.078Z,74.41
2023-07-25T01:50:00.822Z,74.35
2023-07-25T01:50:12.530Z,74.35
2023-07-25T01:50:25.214Z,74.37
2023-07-25T01:50:36.902Z,74.44
2023-07-25T01:50:48.588Z,74.38
2023-07-25T01:51:00.290Z,74.14
2023-07-25T01:51:11.992Z,74.22
2023-07-25T01:51:23.666Z,74.23
2023-07-25T01:51:35.381Z,74.12
2023-07-25T01:51:47.084Z,74.08
2023-07-25T01:51:58.864Z,74.18
2023-07-25T01:52:11.529Z,74.03
2023-07-25T01:52:23.327Z,74.07
2023-07-25T01:52:35.054Z,74.08
2023-07-25T01:52:46.773Z,74.40
2023-07-25T01:52:58.480Z,74.35
2023-07-25T01:53:10.183Z,74.43
2023-07-25T01:53:21.889Z,74.50
2023-07-25T01:53:33.595Z,74.29
2023-07-25T01:53:45.304Z,74.53
2023-07-25T01:53:59.410Z,74.35
2023-07-25T01:54:13.461Z,74.28
2023-07-25T01:54:25.280Z,74.50
2023-07-25T01:54:37.006Z,74.57
2023-07-25T01:54:49.649Z,74.53
2023-07-25T01:55:01.387Z,74.35
2023-07-25T01:55:13.096Z,74.52
2023-07-25T01:55:24.839Z,74.48
2023-07-25T01:55:37.623Z,74.50
2023-07-25T01:55:49.324Z,74.52
2023-07-25T01:56:01.116Z,74.45
2023-07-25T01:56:13.797Z,74.41
2023-07-25T01:56:25.981Z,74.41
2023-07-25T01:56:37.746Z,74.34
2023-07-25T01:56:50.982Z,74.33
2023-07-25T01:57:02.960Z,74.28
2023-07-25T01:57:14.762Z,74.30
2023-07-25T01:57:26.532Z,74.45
2023-07-25T01:57:39.316Z,74.34
2023-07-25T01:57:51.019Z,74.34
2023-07-25T01:58:02.721Z,74.29
2023-07-25T01:58:14.439Z,74.37
2023-07-25T01:58:26.169Z,74.33
2023-07-25T01:58:37.834Z,74.28
2023-07-25T01:58:49.558Z,74.27
2023-07-25T01:59:01.280Z,74.21
2023-07-25T01:59:13.085Z,74.31
2023-07-25T01:59:25.782Z,74.30
2023-07-25T01:59:37.458Z,74.28
2023-07-25T01:59:50.273Z,74.26
2023-07-25T02:00:02.110Z,74.46
2023-07-25T02:00:14.304Z,74.42
2023-07-25T02:00:26.011Z,74.47
2023-07-25T02:00:37.686Z,74.33
2023-07-25T02:00:49.632Z,74.35
2023-07-25T02:01:02.567Z,74.27
2023-07-25T02:01:14.308Z,74.36
2023-07-25T02:01:26.082Z,74.22
2023-07-25T02:01:37.837Z,74.31
2023-07-25T02:01:49.661Z,74.10
2023-07-25T02:02:01.413Z,73.98
2023-07-25T02:02:13.182Z,74.00
2023-07-25T02:02:24.953Z,73.98
2023-07-25T02:02:36.724Z,73.89
2023-07-25T02:02:49.657Z,73.99
2023-07-25T02:03:01.464Z,74.09
2023-07-25T02:03:16.998Z,73.97
2023-07-25T02:03:29.022Z,73.85
2023-07-25T02:03:40.739Z,73.91
2023-07-25T02:03:52.500Z,73.87
2023-07-25T02:04:04.499Z,73.75
2023-07-25T02:04:16.268Z,73.87
2023-07-25T02:04:28.051Z,73.78
2023-07-25T02:04:40.806Z,73.80
2023-07-25T02:04:52.557Z,73.85
2023-07-25T02:05:05.088Z,73.66
2023-07-25T02:05:16.885Z,73.81
2023-07-25T02:05:28.615Z,73.95
2023-07-25T02:05:40.374Z,74.15
2023-07-25T02:05:52.102Z,74.03
2023-07-25T02:06:05.254Z,74.09
2023-07-25T02:06:16.956Z,74.04
2023-07-25T02:06:28.717Z,74.08
2023-07-25T02:06:41.388Z,74.17
2023-07-25T02:06:53.086Z,74.29
2023-07-25T02:07:05.379Z,74.32
2023-07-25T02:07:17.046Z,74.47
2023-07-25T02:07:28.733Z,74.63
2023-07-25T02:07:40.409Z,74.58
2023-07-25T02:07:52.808Z,74.62
2023-07-25T02:08:05.061Z,74.71
2023-07-25T02:08:16.775Z,74.63
2023-07-25T02:08:28.443Z,74.64
2023-07-25T02:08:40.191Z,74.51
2023-07-25T02:08:52.880Z,74.52
2023-07-25T02:09:04.579Z,74.47
2023-07-25T02:09:18.078Z,74.39
2023-07-25T02:09:29.777Z,74.43
2023-07-25T02:09:41.521Z,74.22
2023-07-25T02:09:53.460Z,74.33
2023-07-25T02:10:06.335Z,74.12
2023-07-25T02:10:18.420Z,74.21
2023-07-25T02:10:33.227Z,74.29
2023-07-25T02:10:44.963Z,74.56
2023-07-25T02:10:56.692Z,74.48
2023-07-25T02:11:08.629Z,74.75
2023-07-25T02:11:20.321Z,74.59
2023-07-25T02:11:32.231Z,74.61
2023-07-25T02:11:44.220Z,74.49
2023-07-25T02:11:55.933Z,74.87
2023-07-25T02:12:08.791Z,74.90
2023-07-25T02:12:20.533Z,74.95
2023-07-25T02:12:32.241Z,74.95
2023-07-25T02:12:44.938Z,75.00
2023-07-25T02:12:57.224Z,75.02
2023-07-25T02:13:09.058Z,74.87
2023-07-25T02:13:20.832Z,75.00
2023-07-25T02:13:32.671Z,74.79
2023-07-25T02:13:44.399Z,74.84
2023-07-25T02:13:56.253Z,74.84
2023-07-25T02:14:07.950Z,74.92
2023-07-25T02:14:19.718Z,74.83
2023-07-25T02:14:31.394Z,74.78
2023-07-25T02:14:43.105Z,74.81
2023-07-25T02:14:55.826Z,74.66
2023-07-25T02:15:08.733Z,74.68
2023-07-25T02:15:20.472Z,74.87
2023-07-25T02:15:32.199Z,74.78
2023-07-25T02:15:43.922Z,74.81
2023-07-25T02:15:55.668Z,74.67
2023-07-25T02:16:07.504Z,74.64
2023-07-25T02:16:19.258Z,74.53
2023-07-25T02:16:34.916Z,74.64
2023-07-25T02:16:46.719Z,74.66
2023-07-25T02:16:58.812Z,74.61
2023-07-25T02:17:10.652Z,74.67
2023-07-25T02:17:22.567Z,74.78
2023-07-25T02:17:34.333Z,74.91
2023-07-25T02:17:46.116Z,74.94
2023-07-25T02:17:57.868Z,74.86
2023-07-25T02:18:09.584Z,74.92
2023-07-25T02:18:21.310Z,74.97
2023-07-25T02:18:34.064Z,75.08
2023-07-25T02:18:45.747Z,75.01
2023-07-25T02:18:57.466Z,74.92
2023-07-25T02:19:09.276Z,74.80
2023-07-25T02:19:21.021Z,75.08
2023-07-25T02:19:32.743Z,74.93
2023-07-25T02:19:44.421Z,74.92
2023-07-25T02:19:56.116Z,74.88
2023-07-25T02:20:08.806Z,74.76
2023-07-25T02:20:21.208Z,74.75
2023-07-25T02:20:34.253Z,74.61
2023-07-25T02:20:45.976Z,74.56
2023-07-25T02:20:57.675Z,74.68
2023-07-25T02:21:09.405Z,74.75
2023-07-25T02:21:21.141Z,74.63
2023-07-25T02:21:33.241Z,74.80
2023-07-25T02:21:45.296Z,74.75
2023-07-25T02:21:57.012Z,74.75
2023-07-25T02:22:08.761Z,74.80
2023-07-25T02:22:21.451Z,74.73
2023-07-25T02:22:33.162Z,74.74
2023-07-25T02:22:44.877Z,74.77
2023-07-25T02:22:56.581Z,74.75
2023-07-25T02:23:08.690Z,74.87
2023-07-25T02:23:20.393Z,74.67
2023-07-25T02:23:32.176Z,74.84
2023-07-25T02:23:43.893Z,74.79
2023-07-25T02:23:56.584Z,74.86
2023-07-25T02:24:08.332Z,74.98
2023-07-25T02:24:21.453Z,74.84
2023-07-25T02:24:33.418Z,74.79
2023-07-25T02:24:45.211Z,74.82
2023-07-25T02:24:56.966Z,74.95
2023-07-25T02:25:09.337Z,74.98
2023-07-25T02:25:21.185Z,74.90
2023-07-25T02:25:33.089Z,74.86
2023-07-25T02:25:47.126Z,74.78
2023-07-25T02:25:58.855Z,74.97
2023-07-25T02:26:10.558Z,74.91
2023-07-25T02:26:22.253Z,75.06
2023-07-25T02:26:33.953Z,74.89
2023-07-25T02:26:45.944Z,75.00
2023-07-25T02:26:57.760Z,75.32
2023-07-25T02:27:09.593Z,74.95
2023-07-25T02:27:22.259Z,75.08
2023-07-25T02:27:34.433Z,74.96
2023-07-25T02:27:46.153Z,75.03
2023-07-25T02:27:57.875Z,74.98
2023-07-25T02:28:09.588Z,74.99
2023-07-25T02:28:21.385Z,74.91
2023-07-25T02:28:33.221Z,74.87
2023-07-25T02:28:44.917Z,74.93
2023-07-25T02:28:56.655Z,74.83
2023-07-25T02:29:08.347Z,74.94
2023-07-25T02:29:21.016Z,74.91
2023-07-25T02:29:32.728Z,74.93
2023-07-25T02:29:44.528Z,74.98
2023-07-25T02:29:56.236Z,74.84
2023-07-25T02:30:08.575Z,75.01
2023-07-25T02:30:21.148Z,74.97
2023-07-25T02:30:32.861Z,75.04
2023-07-25T02:30:46.083Z,74.94
2023-07-25T02:30:58.008Z,74.94
2023-07-25T02:31:09.801Z,74.85
2023-07-25T02:31:22.573Z,74.93
2023-07-25T02:31:34.572Z,75.06
2023-07-25T02:31:46.854Z,74.89
2023-07-25T02:31:58.570Z,74.95
2023-07-25T02:32:10.315Z,75.04
2023-07-25T02:32:22.149Z,74.95
2023-07-25T02:32:33.888Z,75.09
2023-07-25T02:32:45.687Z,75.13
2023-07-25T02:32:57.450Z,75.00
2023-07-25T02:33:09.180Z,75.24
2023-07-25T02:33:21.885Z,75.10
2023-07-25T02:33:33.590Z,75.15
2023-07-25T02:33:45.420Z,75.12
2023-07-25T02:33:57.190Z,75.15
2023-07-25T02:34:08.964Z,75.13
2023-07-25T02:34:20.677Z,75.06
2023-07-25T02:34:32.402Z,75.04
2023-07-25T02:34:44.101Z,75.00
2023-07-25T02:34:55.802Z,75.13
2023-07-25T02:35:08.760Z,75.12
2023-07-25T02:35:20.464Z,75.10
2023-07-25T02:35:32.180Z,75.29
2023-07-25T02:35:43.898Z,75.17
2023-07-25T02:35:55.629Z,75.02
2023-07-25T02:36:07.337Z,75.22
2023-07-25T02:36:19.068Z,75.17